Time;durP1;ratioP1;P1;durP2;ratioP2;P2;SDS_P1;SDS_P2;PMS_P1;PMS_P2;Temp;Humidity;BMP_temperature;BMP_pressure;BME280_temperature;BME280_humidity;BME280_pressure;Samples;Min_cycle;Max_cycle;Signal;HPM_P1;HPM_P2
2023/12/24 00:02:14;;;;;;;6.80;2.20;;;;;;;3.18;68.87;98966.30;108781;1277;21978;-60
2023/12/24 00:04:41;;;;;;;6.80;2.60;;;;;;;3.15;68.75;98968.73;108799;1277;21981;-60
2023/12/24 00:07:06;;;;;;;6.10;2.30;;;;;;;3.12;68.64;98972.73;108833;1273;21988;-60
2023/12/24 00:09:32;;;;;;;7.60;2.40;;;;;;;3.09;68.53;98977.78;108527;1274;21976;-61
2023/12/24 00:11:57;;;;;;;5.00;2.50;;;;;;;3.04;68.52;98980.41;108776;1271;22760;-61
2023/12/24 00:14:23;;;;;;;6.90;2.30;;;;;;;3.03;68.69;98981.80;108765;1277;21989;-60
2023/12/24 00:16:49;;;;;;;5.40;2.30;;;;;;;3.01;68.81;98991.16;108038;1277;1002115;-61
2023/12/24 00:19:14;;;;;;;4.10;1.80;;;;;;;3.01;69.04;99000.70;108747;1277;21974;-60
2023/12/24 00:21:40;;;;;;;4.80;2.20;;;;;;;3.00;69.07;99000.34;108734;1277;21978;-60
2023/12/24 00:24:05;;;;;;;5.10;2.00;;;;;;;3.01;69.10;98995.83;108001;1273;1003040;-60
2023/12/24 00:26:31;;;;;;;4.30;1.90;;;;;;;3.02;69.11;98996.36;107982;1271;1002687;-60
2023/12/24 00:28:57;;;;;;;5.20;2.00;;;;;;;3.03;69.25;98996.70;108050;1277;1002547;-60
2023/12/24 00:31:23;;;;;;;5.60;2.10;;;;;;;3.05;69.47;99000.86;108039;1269;1002988;-60
2023/12/24 00:33:49;;;;;;;7.80;2.40;;;;;;;3.07;69.79;99000.50;108034;1271;1003170;-60
2023/12/24 00:36:14;;;;;;;5.90;2.60;;;;;;;3.12;69.88;98997.86;108772;1267;21999;-60
2023/12/24 00:38:40;;;;;;;6.90;2.70;;;;;;;3.14;69.84;98996.83;108794;1274;21967;-60
2023/12/24 00:41:05;;;;;;;4.90;2.30;;;;;;;3.15;70.06;98997.67;108796;1277;23705;-61
2023/12/24 00:43:31;;;;;;;6.00;2.20;;;;;;;3.17;70.15;99002.19;108761;1277;21981;-60
2023/12/24 00:45:57;;;;;;;5.10;2.20;;;;;;;3.22;70.35;99001.64;108807;1277;22015;-60
2023/12/24 00:48:22;;;;;;;6.10;2.10;;;;;;;3.25;70.46;98995.04;108055;1277;1002458;-60
2023/12/24 00:50:48;;;;;;;4.20;1.80;;;;;;;3.28;70.45;98993.98;108061;1274;1003010;-60
2023/12/24 00:53:13;;;;;;;5.30;2.10;;;;;;;3.29;70.39;98991.73;108745;1277;21978;-60
2023/12/24 00:55:41;;;;;;;4.80;2.00;;;;;;;3.29;70.46;99000.05;108728;1277;21977;-60
2023/12/24 00:58:07;;;;;;;6.00;2.20;;;;;;;3.28;70.23;99005.43;108015;1277;1002912;-60
2023/12/24 01:00:33;;;;;;;7.60;2.50;;;;;;;3.28;70.15;99007.33;108778;1277;22069;-60
2023/12/24 01:02:58;;;;;;;5.90;2.60;;;;;;;3.29;70.16;99002.13;108837;1277;21991;-60
2023/12/24 01:05:24;;;;;;;5.00;2.30;;;;;;;3.31;70.20;99001.95;108857;1268;21994;-60
2023/12/24 01:07:49;;;;;;;6.10;2.40;;;;;;;3.34;70.32;98995.86;108091;1277;1002994;-59
2023/12/24 01:10:15;;;;;;;5.70;2.30;;;;;;;3.34;70.35;98992.39;108872;1267;21981;-61
2023/12/24 01:12:42;;;;;;;5.00;2.10;;;;;;;3.35;70.30;98997.77;107997;1277;1002688;-61
2023/12/24 01:15:08;;;;;;;5.60;2.10;;;;;;;3.35;70.40;99000.02;108055;1274;1002331;-60
2023/12/24 01:17:34;;;;;;;6.00;2.80;;;;;;;3.35;70.03;98997.25;108819;1277;21997;-60
2023/12/24 01:20:00;;;;;;;6.40;2.20;;;;;;;3.34;70.09;98998.98;108737;1277;21964;-61
2023/12/24 01:22:26;;;;;;;7.90;2.20;;;;;;;3.33;70.25;98998.98;108822;1272;21997;-60
2023/12/24 01:24:51;;;;;;;5.50;2.50;;;;;;;3.35;70.44;98999.15;108795;1277;21985;-59
2023/12/24 01:27:17;;;;;;;5.70;2.50;;;;;;;3.37;70.51;99001.40;108787;1277;21988;-59
2023/12/24 01:29:42;;;;;;;4.30;1.90;;;;;;;3.38;70.45;99000.36;108764;1277;21986;-59
2023/12/24 01:32:08;;;;;;;13.90;4.10;;;;;;;3.39;70.45;98998.60;107992;1277;1002346;-59
2023/12/24 01:34:34;;;;;;;4.60;2.30;;;;;;;3.39;70.55;98999.30;108010;1277;1003180;-59
2023/12/24 01:36:59;;;;;;;4.70;2.20;;;;;;;3.39;70.44;98999.64;108789;1271;21994;-59
2023/12/24 01:39:25;;;;;;;6.30;2.40;;;;;;;3.40;70.37;99003.11;108771;1268;21980;-60
2023/12/24 01:41:51;;;;;;;3.70;1.70;;;;;;;3.40;70.49;99004.16;108763;1277;21985;-60
2023/12/24 01:44:17;;;;;;;4.90;2.30;;;;;;;3.38;70.28;99011.79;108797;1268;22017;-61
2023/12/24 01:46:43;;;;;;;3.60;1.70;;;;;;;3.36;70.15;99010.58;108709;1277;21980;-60
2023/12/24 01:49:11;;;;;;;7.00;2.50;;;;;;;3.34;70.12;99009.91;108058;1277;1002552;-60
2023/12/24 01:51:36;;;;;;;4.30;1.90;;;;;;;3.32;70.20;99019.98;108788;1277;22020;-59
2023/12/24 01:54:02;;;;;;;4.80;2.10;;;;;;;3.30;70.30;99019.64;108550;1274;21970;-60
2023/12/24 01:56:27;;;;;;;4.30;2.20;;;;;;;3.27;70.16;99028.33;108521;1278;21990;-60
2023/12/24 01:58:53;;;;;;;5.00;2.50;;;;;;;3.25;69.95;99027.81;108475;1276;22931;-59
2023/12/24 02:01:19;;;;;;;3.70;2.00;;;;;;;3.23;69.96;99032.67;107797;1274;1002951;-61
2023/12/24 02:03:45;;;;;;;3.50;1.70;;;;;;;3.19;69.95;99038.58;108453;1276;22028;-60
2023/12/24 02:06:10;;;;;;;6.30;2.30;;;;;;;3.18;70.15;99040.48;107713;1278;1002649;-60
2023/12/24 02:08:38;;;;;;;4.20;2.10;;;;;;;3.18;70.47;99037.19;108513;1270;21979;-60
2023/12/24 02:11:04;;;;;;;6.10;2.40;;;;;;;3.21;70.57;99039.96;108501;1273;22011;-60
2023/12/24 02:13:30;;;;;;;3.20;1.70;;;;;;;3.25;70.54;99039.77;108530;1278;21983;-61
2023/12/24 02:15:57;;;;;;;5.70;2.40;;;;;;;3.24;70.47;99036.48;108575;1278;21976;-61
2023/12/24 02:18:22;;;;;;;5.60;2.70;;;;;;;3.26;70.42;99034.91;108554;1277;21982;-61
2023/12/24 02:20:48;;;;;;;5.50;1.90;;;;;;;3.32;70.44;99036.96;107798;1270;1006172;-59
2023/12/24 02:23:14;;;;;;;4.70;2.40;;;;;;;3.34;70.54;99045.28;108616;1278;21977;-61
2023/12/24 02:25:39;;;;;;;4.90;2.30;;;;;;;3.36;70.34;99046.48;108674;1275;21979;-59
2023/12/24 02:28:19;;;;;;;7.60;2.50;;;;;;;3.42;70.37;99047.50;108640;1277;21995;-61
2023/12/24 02:30:50;;;;;;;4.00;2.10;;;;;;;3.48;70.59;99053.21;108011;1277;1002422;-61
2023/12/24 02:33:16;;;;;;;3.60;1.90;;;;;;;3.50;70.40;99055.11;107716;1278;1002829;-60
2023/12/24 02:35:42;;;;;;;3.90;1.80;;;;;;;3.52;70.17;99057.86;108263;1277;1002596;-59
2023/12/24 02:38:07;;;;;;;5.40;2.10;;;;;;;3.53;69.98;99056.98;108486;1277;21980;-60
2023/12/24 02:40:33;;;;;;;3.90;2.00;;;;;;;3.51;69.92;99058.22;108473;1277;21974;-60
2023/12/24 02:42:58;;;;;;;4.40;2.20;;;;;;;3.51;69.90;99061.35;108755;1277;21992;-59
2023/12/24 02:45:24;;;;;;;5.70;2.00;;;;;;;3.48;69.81;99069.33;108738;1277;21968;-60
2023/12/24 02:47:50;;;;;;;5.30;1.60;;;;;;;3.46;69.84;99074.02;108737;1277;21979;-61
2023/12/24 02:50:19;;;;;;;5.90;2.30;;;;;;;3.45;69.91;99074.89;108746;1277;21987;-59
2023/12/24 02:52:46;;;;;;;4.00;2.00;;;;;;;3.44;69.80;99077.67;108805;1277;21977;-60
2023/12/24 02:55:12;;;;;;;5.90;2.30;;;;;;;3.44;69.87;99083.39;108757;1277;22047;-60
2023/12/24 02:57:37;;;;;;;4.80;1.90;;;;;;;3.45;69.87;99091.36;108734;1274;21987;-59
2023/12/24 03:00:05;;;;;;;3.00;1.60;;;;;;;3.44;69.74;99096.05;108749;1268;21988;-61
2023/12/24 03:02:32;;;;;;;5.90;2.10;;;;;;;3.45;69.86;99099.69;108806;1277;22108;-60
2023/12/24 03:04:58;;;;;;;4.10;2.00;;;;;;;3.42;69.60;99100.05;108730;1274;21979;-60
2023/12/24 03:07:23;;;;;;;3.90;1.80;;;;;;;3.40;69.49;99103.52;108731;1277;21988;-60
2023/12/24 03:09:49;;;;;;;5.00;1.80;;;;;;;3.39;69.78;99111.85;108772;1277;22017;-61
2023/12/24 03:12:15;;;;;;;5.70;2.10;;;;;;;3.37;69.64;99116.20;108769;1277;22452;-60
2023/12/24 03:14:40;;;;;;;5.70;2.00;;;;;;;3.32;69.18;99115.69;108741;1277;21983;-61
2023/12/24 03:17:06;;;;;;;4.30;1.50;;;;;;;3.25;69.11;99113.98;108788;1274;22017;-62
2023/12/24 03:19:34;;;;;;;4.60;1.70;;;;;;;3.18;69.08;99118.33;108761;1277;21994;-61
2023/12/24 03:22:00;;;;;;;4.40;2.40;;;;;;;3.13;69.13;99123.52;108813;1277;21990;-61
2023/12/24 03:24:26;;;;;;;3.60;1.60;;;;;;;3.10;69.30;99126.31;108795;1277;21973;-60
2023/12/24 03:26:51;;;;;;;6.20;1.80;;;;;;;3.10;69.42;99132.38;108726;1277;21998;-60
2023/12/24 03:29:17;;;;;;;3.30;1.70;;;;;;;3.09;69.37;99141.40;108502;1268;21981;-60
2023/12/24 03:31:42;;;;;;;3.50;1.70;;;;;;;3.09;69.38;99149.38;108440;1278;109770;-60
2023/12/24 03:34:08;;;;;;;4.10;1.90;;;;;;;3.06;69.29;99153.20;107815;1274;1002017;-60
2023/12/24 03:36:33;;;;;;;4.60;2.00;;;;;;;3.03;69.07;99156.14;108772;1277;21980;-60
2023/12/24 03:39:00;;;;;;;10.10;4.50;;;;;;;3.05;68.93;99155.97;108721;1277;21982;-59
2023/12/24 03:41:25;;;;;;;10.40;6.00;;;;;;;3.09;68.99;99158.56;108648;1277;22017;-60
2023/12/24 03:43:51;;;;;;;6.70;3.70;;;;;;;3.09;68.75;99161.50;108594;1277;22953;-61
2023/12/24 03:46:19;;;;;;;24.50;13.30;;;;;;;3.06;68.43;99166.19;107867;1277;1003041;-60
2023/12/24 03:48:45;;;;;;;54.70;27.10;;;;;;;3.06;68.32;99169.14;107864;1277;1002351;-59
2023/12/24 03:51:11;;;;;;;25.70;13.90;;;;;;;3.06;68.01;99168.79;107834;1273;1003198;-59
2023/12/24 03:53:40;;;;;;;8.40;5.40;;;;;;;3.01;67.67;99169.31;108712;1276;21986;-59
2023/12/24 03:56:05;;;;;;;7.80;4.90;;;;;;;2.99;67.59;99167.41;108681;1277;21982;-60
2023/12/24 03:58:31;;;;;;;7.50;4.40;;;;;;;3.03;67.81;99164.29;108783;1277;22000;-60
2023/12/24 04:00:57;;;;;;;5.90;3.60;;;;;;;3.04;67.70;99166.36;108807;1277;21999;-59
2023/12/24 04:03:22;;;;;;;5.80;3.00;;;;;;;3.00;67.44;99166.90;108690;1277;21950;-60
2023/12/24 04:05:48;;;;;;;4.10;2.20;;;;;;;2.94;67.24;99166.71;108686;1277;21983;-60
2023/12/24 04:08:17;;;;;;;10.20;5.40;;;;;;;2.95;67.28;99166.89;107856;1277;1002694;-60
2023/12/24 04:10:42;;;;;;;12.90;7.80;;;;;;;2.95;67.29;99170.88;107859;1268;1002342;-60
2023/12/24 04:13:08;;;;;;;15.30;9.00;;;;;;;2.98;67.55;99175.03;108681;1277;21980;-60
2023/12/24 04:15:34;;;;;;;6.60;3.90;;;;;;;3.01;67.69;99173.48;108615;1271;21974;-60
2023/12/24 04:18:02;;;;;;;4.10;2.20;;;;;;;3.05;67.64;99175.56;108610;1270;21988;-61
2023/12/24 04:20:28;;;;;;;5.30;2.60;;;;;;;3.08;67.65;99178.48;108632;1271;21981;-60
2023/12/24 04:22:54;;;;;;;6.60;3.10;;;;;;;3.11;67.42;99183.69;108754;1277;21976;-60
2023/12/24 04:25:19;;;;;;;51.00;25.50;;;;;;;3.13;67.40;99189.23;108647;1277;22016;-59
2023/12/24 04:27:45;;;;;;;39.20;20.30;;;;;;;3.17;67.55;99192.87;108763;1277;21980;-59
2023/12/24 04:30:11;;;;;;;17.50;10.00;;;;;;;3.17;67.37;99198.94;108745;1275;21987;-60
2023/12/24 04:32:37;;;;;;;5.70;3.00;;;;;;;3.19;67.37;99199.98;107892;1270;1002307;-60
2023/12/24 04:35:04;;;;;;;8.40;2.40;;;;;;;3.20;67.47;99201.88;107856;1274;1002404;-59
2023/12/24 04:37:30;;;;;;;5.70;2.30;;;;;;;3.18;67.57;99201.19;108639;1278;23619;-60
2023/12/24 04:39:55;;;;;;;5.00;2.40;;;;;;;3.15;67.51;99197.04;108650;1268;21984;-60
2023/12/24 04:42:21;;;;;;;4.80;2.20;;;;;;;3.13;67.63;99195.64;107915;1276;1002803;-61
2023/12/24 04:44:46;;;;;;;4.60;2.00;;;;;;;3.10;67.93;99193.73;107893;1278;1002273;-61
2023/12/24 04:47:12;;;;;;;5.40;2.70;;;;;;;3.05;68.32;99198.77;108662;1273;21986;-61
2023/12/24 04:49:37;;;;;;;5.70;2.70;;;;;;;3.01;68.36;99204.67;108639;1274;21981;-60
2023/12/24 04:52:03;;;;;;;9.20;4.70;;;;;;;2.96;68.70;99212.80;107867;1276;1004260;-61
2023/12/24 04:54:29;;;;;;;5.80;2.50;;;;;;;3.02;68.68;99213.85;107835;1278;1002837;-60
2023/12/24 04:56:55;;;;;;;3.70;2.30;;;;;;;3.08;68.69;99208.98;107996;1278;1002736;-60
2023/12/24 04:59:20;;;;;;;7.10;2.40;;;;;;;3.05;68.74;99218.88;108603;1271;21980;-60
2023/12/24 05:01:46;;;;;;;4.50;1.90;;;;;;;3.07;69.02;99227.55;108601;1278;22003;-60
2023/12/24 05:04:11;;;;;;;4.10;2.10;;;;;;;3.11;69.11;99234.81;108586;1278;21973;-60
2023/12/24 05:06:37;;;;;;;4.80;2.20;;;;;;;3.07;69.19;99236.55;108028;1275;1002182;-60
2023/12/24 05:09:03;;;;;;;5.50;2.60;;;;;;;3.04;69.49;99240.04;108627;1275;21978;-60
2023/12/24 05:11:28;;;;;;;6.00;2.30;;;;;;;3.05;69.70;99245.05;107942;1274;1002551;-60
2023/12/24 05:13:54;;;;;;;4.70;2.00;;;;;;;3.08;70.09;99251.13;108542;1273;21989;-60
2023/12/24 05:16:19;;;;;;;5.00;2.30;;;;;;;3.10;70.08;99257.35;108586;1278;21987;-60
2023/12/24 05:18:45;;;;;;;5.10;2.00;;;;;;;3.13;70.33;99263.42;108630;1277;21984;-61
2023/12/24 05:21:10;;;;;;;7.10;2.10;;;;;;;3.16;70.13;99270.52;108669;1278;21985;-61
2023/12/24 05:23:36;;;;;;;5.50;2.00;;;;;;;3.12;70.12;99270.52;108587;1278;21974;-60
2023/12/24 05:26:02;;;;;;;5.20;2.60;;;;;;;3.13;70.17;99278.67;108514;1275;21967;-62
2023/12/24 05:28:27;;;;;;;6.10;2.30;;;;;;;3.14;70.05;99284.05;108561;1275;21979;-61
2023/12/24 05:30:53;;;;;;;5.60;1.80;;;;;;;3.15;70.07;99284.23;108655;1272;21985;-61
2023/12/24 05:33:18;;;;;;;6.10;2.20;;;;;;;3.17;70.08;99283.01;108603;1278;22036;-61
2023/12/24 05:35:44;;;;;;;5.70;2.20;;;;;;;3.17;70.02;99288.73;108556;1278;21989;-62
2023/12/24 05:38:10;;;;;;;3.50;1.80;;;;;;;3.17;70.07;99292.55;108634;1278;21985;-61
2023/12/24 05:40:36;;;;;;;5.50;2.00;;;;;;;3.19;69.95;99299.83;108588;1278;21980;-61
2023/12/24 05:43:01;;;;;;;3.90;2.10;;;;;;;3.22;69.80;99304.52;108540;1275;21987;-61
2023/12/24 05:45:27;;;;;;;7.70;2.10;;;;;;;3.23;69.74;99309.02;108565;1277;21985;-62
2023/12/24 05:47:53;;;;;;;5.20;1.90;;;;;;;3.24;69.44;99314.05;108535;1268;21982;-61
2023/12/24 05:50:18;;;;;;;4.50;2.10;;;;;;;3.22;69.36;99321.52;108548;1278;22009;-60
2023/12/24 05:52:44;;;;;;;4.60;2.10;;;;;;;3.16;69.28;99329.13;108510;1275;21986;-60
2023/12/24 05:55:10;;;;;;;6.00;1.80;;;;;;;3.16;69.39;99337.45;108616;1278;21998;-60
2023/12/24 05:57:35;;;;;;;4.40;2.00;;;;;;;3.17;69.49;99341.43;108675;1278;22072;-61
2023/12/24 06:00:03;;;;;;;4.20;2.20;;;;;;;3.21;69.72;99339.18;108533;1274;21983;-61
2023/12/24 06:02:28;;;;;;;4.70;1.90;;;;;;;3.28;69.68;99342.15;108661;1277;22023;-61
2023/12/24 06:04:54;;;;;;;6.30;2.30;;;;;;;3.27;69.73;99349.77;108781;1274;23634;-60
2023/12/24 06:07:19;;;;;;;5.90;1.80;;;;;;;3.30;69.69;99354.63;108717;1277;21981;-60
2023/12/24 06:09:45;;;;;;;5.70;2.20;;;;;;;3.32;69.57;99354.98;108616;1277;21992;-61
2023/12/24 06:12:11;;;;;;;5.60;2.40;;;;;;;3.38;69.87;99357.05;108627;1275;21992;-60
2023/12/24 06:14:37;;;;;;;4.90;2.20;;;;;;;3.47;70.21;99355.69;108632;1267;21981;-60
2023/12/24 06:17:02;;;;;;;8.70;2.40;;;;;;;3.56;70.14;99359.66;108620;1277;21989;-60
2023/12/24 06:19:28;;;;;;;8.20;2.80;;;;;;;3.65;70.19;99361.91;108730;1273;21980;-61
2023/12/24 06:21:54;;;;;;;4.40;2.10;;;;;;;3.72;70.23;99361.57;108079;1277;1002215;-61
2023/12/24 06:24:21;;;;;;;6.30;2.70;;;;;;;3.78;70.15;99362.60;108640;1277;21980;-60
2023/12/24 06:26:47;;;;;;;4.90;2.10;;;;;;;3.84;69.91;99369.71;108676;1277;21989;-61
2023/12/24 06:29:13;;;;;;;4.60;1.90;;;;;;;3.90;69.93;99375.79;108853;1273;21986;-60
2023/12/24 06:31:39;;;;;;;5.40;2.10;;;;;;;3.96;70.08;99380.46;108780;1277;21988;-60
2023/12/24 06:34:04;;;;;;;4.60;2.10;;;;;;;4.03;70.06;99384.44;108785;1277;21968;-60
2023/12/24 06:36:30;;;;;;;4.10;2.00;;;;;;;4.08;70.11;99388.08;108819;1275;21993;-60
2023/12/24 06:38:55;;;;;;;3.70;1.90;;;;;;;4.13;70.56;99388.59;108813;1277;21999;-60
2023/12/24 06:41:22;;;;;;;4.60;2.20;;;;;;;4.19;70.48;99385.98;108765;1277;21993;-61
2023/12/24 06:43:47;;;;;;;6.30;1.90;;;;;;;4.23;70.36;99390.48;108816;1277;21980;-61
2023/12/24 06:46:13;;;;;;;5.60;2.00;;;;;;;4.25;70.45;99398.98;108859;1277;22015;-61
2023/12/24 06:48:41;;;;;;;5.40;2.30;;;;;;;4.34;70.26;99400.69;108792;1275;22112;-60
2023/12/24 06:51:07;;;;;;;3.90;2.10;;;;;;;4.40;69.88;99403.80;108769;1270;22073;-61
2023/12/24 06:53:33;;;;;;;5.20;1.70;;;;;;;4.50;69.70;99412.98;108752;1277;21983;-61
2023/12/24 06:55:59;;;;;;;4.50;2.50;;;;;;;4.50;69.28;99416.64;108088;1277;1002143;-60
2023/12/24 06:58:24;;;;;;;4.10;2.10;;;;;;;4.54;69.33;99420.98;108680;1274;21974;-60
2023/12/24 07:00:50;;;;;;;5.10;2.00;;;;;;;4.56;69.61;99421.66;108734;1275;21973;-60
2023/12/24 07:03:15;;;;;;;6.10;2.00;;;;;;;4.57;69.86;99423.22;108632;1277;22077;-60
2023/12/24 07:05:42;;;;;;;3.60;1.70;;;;;;;4.61;69.65;99424.77;108722;1274;22010;-60
2023/12/24 07:08:08;;;;;;;5.30;2.30;;;;;;;4.65;69.98;99428.75;108684;1277;21982;-62
2023/12/24 07:10:34;;;;;;;5.00;1.70;;;;;;;4.66;69.90;99433.96;108051;1277;1003695;-61
2023/12/24 07:13:00;;;;;;;4.00;2.20;;;;;;;4.75;70.13;99436.54;108802;1277;23106;-61
2023/12/24 07:15:25;;;;;;;17.90;2.70;;;;;;;4.87;70.51;99441.71;108901;1277;21986;-61
2023/12/24 07:17:51;;;;;;;7.80;2.00;;;;;;;4.93;70.56;99446.02;108785;1277;21979;-62
2023/12/24 07:20:17;;;;;;;6.40;1.80;;;;;;;4.91;70.05;99450.20;108778;1270;22730;-59
2023/12/24 07:22:44;;;;;;;3.40;1.50;;;;;;;5.03;70.21;99450.86;108699;1277;21982;-61
2023/12/24 07:25:10;;;;;;;4.20;1.90;;;;;;;5.11;70.17;99448.20;108609;1271;21982;-61
2023/12/24 07:27:35;;;;;;;4.10;2.20;;;;;;;5.18;69.67;99446.25;108564;1277;21987;-61
2023/12/24 07:30:01;;;;;;;4.40;1.80;;;;;;;5.19;68.78;99448.69;108490;1273;21988;-61
2023/12/24 07:32:27;;;;;;;3.60;2.00;;;;;;;5.26;68.26;99448.65;108487;1271;21982;-61
2023/12/24 07:34:52;;;;;;;4.40;2.00;;;;;;;5.40;68.56;99455.01;108744;1277;21982;-59
2023/12/24 07:37:18;;;;;;;5.60;1.70;;;;;;;5.42;67.18;99458.13;108766;1270;22048;-59
2023/12/24 07:39:44;;;;;;;3.50;1.70;;;;;;;5.48;66.87;99459.30;108829;1272;21977;-59
2023/12/24 07:42:09;;;;;;;5.50;2.20;;;;;;;5.55;66.87;99457.36;108119;1267;1002744;-60
2023/12/24 07:44:35;;;;;;;4.90;2.30;;;;;;;5.59;66.20;99464.98;108833;1273;22000;-59
2023/12/24 07:47:01;;;;;;;5.60;2.30;;;;;;;5.64;66.41;99466.17;108065;1268;1002392;-59
2023/12/24 07:49:26;;;;;;;4.20;1.90;;;;;;;5.74;66.77;99466.80;108825;1275;21979;-59
2023/12/24 07:51:52;;;;;;;4.00;1.90;;;;;;;5.78;66.40;99466.92;108796;1277;22024;-59
2023/12/24 07:54:18;;;;;;;4.40;1.80;;;;;;;5.78;66.15;99468.84;108848;1277;22027;-60
2023/12/24 07:56:44;;;;;;;3.80;1.80;;;;;;;5.84;66.22;99467.77;108901;1277;22020;-59
2023/12/24 07:59:09;;;;;;;3.80;2.10;;;;;;;5.90;65.66;99472.25;108728;1277;22004;-59
2023/12/24 08:01:38;;;;;;;4.90;2.10;;;;;;;5.94;65.34;99476.21;108632;1277;21983;-60
2023/12/24 08:04:04;;;;;;;3.60;1.60;;;;;;;6.06;65.55;99478.93;108652;1271;21986;-61
2023/12/24 08:06:30;;;;;;;3.60;1.60;;;;;;;6.08;64.29;99485.20;108526;1273;23444;-60
2023/12/24 08:08:58;;;;;;;5.20;1.90;;;;;;;6.17;64.47;99489.30;108564;1278;22018;-60
2023/12/24 08:11:24;;;;;;;3.70;1.70;;;;;;;6.25;64.86;99490.80;108530;1270;21986;-60
2023/12/24 08:13:49;;;;;;;5.00;2.20;;;;;;;6.33;64.91;99496.13;108711;1274;21974;-60
2023/12/24 08:16:15;;;;;;;7.70;1.90;;;;;;;6.40;64.24;99497.29;108546;1276;21982;-60
2023/12/24 08:18:43;;;;;;;3.60;1.80;;;;;;;6.54;64.11;99494.19;108528;1278;21980;-60
2023/12/24 08:21:10;;;;;;;5.40;2.00;;;;;;;6.63;63.87;99501.23;108555;1277;22772;-62
2023/12/24 08:23:37;;;;;;;4.40;1.70;;;;;;;6.75;63.95;99504.27;108662;1277;21946;-60
2023/12/24 08:26:04;;;;;;;4.90;1.80;;;;;;;6.86;64.29;99498.73;108534;1277;21984;-59
2023/12/24 08:28:30;;;;;;;3.90;1.50;;;;;;;6.94;63.97;99501.09;108546;1270;22120;-59
2023/12/24 08:30:55;;;;;;;6.00;1.80;;;;;;;7.07;63.89;99503.55;108550;1277;21998;-60
2023/12/24 08:33:21;;;;;;;3.60;1.30;;;;;;;7.18;63.45;99506.56;108864;1277;21981;-60
2023/12/24 08:35:46;;;;;;;3.90;1.30;;;;;;;7.27;62.03;99509.42;108808;1277;21974;-61
2023/12/24 08:38:12;;;;;;;4.70;1.80;;;;;;;7.38;62.13;99510.32;108759;1270;21983;-60
2023/12/24 08:40:37;;;;;;;3.70;1.60;;;;;;;7.47;61.60;99507.77;108821;1277;22015;-59
2023/12/24 08:43:03;;;;;;;2.80;1.30;;;;;;;7.55;61.41;99507.82;108786;1277;21988;-60
2023/12/24 08:45:29;;;;;;;4.60;1.60;;;;;;;7.67;62.35;99510.10;108846;1277;23799;-61
2023/12/24 08:47:54;;;;;;;4.10;1.80;;;;;;;7.76;61.69;99513.48;108820;1273;21989;-60
2023/12/24 08:50:23;;;;;;;3.60;1.40;;;;;;;7.82;60.65;99511.45;108744;1273;22020;-61
2023/12/24 08:52:48;;;;;;;3.50;1.20;;;;;;;7.89;60.29;99516.23;108862;1277;22094;-60
2023/12/24 08:55:15;;;;;;;4.30;1.80;;;;;;;7.96;59.91;99517.71;108828;1274;21979;-60
2023/12/24 08:57:41;;;;;;;4.30;1.40;;;;;;;8.05;59.78;99513.03;108838;1277;21985;-62
2023/12/24 09:00:11;;;;;;;4.80;1.30;;;;;;;8.17;60.22;99512.84;108840;1270;21998;-59
2023/12/24 09:02:38;;;;;;;4.90;1.50;;;;;;;8.23;58.67;99509.77;108877;1276;21987;-59
2023/12/24 09:05:07;;;;;;;2.70;1.10;;;;;;;8.34;59.56;99510.80;108155;1276;1002838;-60
2023/12/24 09:07:33;;;;;;;5.60;1.60;;;;;;;8.42;59.13;99513.13;108872;1277;21983;-60
2023/12/24 09:09:59;;;;;;;3.10;1.20;;;;;;;8.47;57.56;99513.21;108842;1277;21982;-60
2023/12/24 09:12:25;;;;;;;3.40;1.40;;;;;;;8.51;56.32;99511.27;108848;1277;21990;-59
2023/12/24 09:14:50;;;;;;;4.80;1.50;;;;;;;8.56;55.86;99508.02;108899;1277;21981;-60
2023/12/24 09:17:16;;;;;;;4.30;1.50;;;;;;;8.62;56.37;99505.98;108878;1277;21985;-60
2023/12/24 09:19:42;;;;;;;2.90;1.20;;;;;;;8.58;54.09;99508.51;107746;1271;1003088;-61
2023/12/24 09:22:07;;;;;;;3.60;1.40;;;;;;;8.63;54.42;99514.87;108795;1277;24447;-60
2023/12/24 09:24:33;;;;;;;3.10;1.50;;;;;;;8.79;56.76;99516.52;108666;1274;21985;-60
2023/12/24 09:26:58;;;;;;;4.20;1.30;;;;;;;8.82;55.50;99516.46;108483;1270;21988;-59
2023/12/24 09:29:24;;;;;;;2.60;1.40;;;;;;;9.01;55.72;99513.30;108649;1278;21949;-62
2023/12/24 09:31:50;;;;;;;3.10;1.30;;;;;;;9.01;54.45;99510.14;108802;1264;21982;-61
2023/12/24 09:34:15;;;;;;;2.80;1.30;;;;;;;9.00;54.79;99507.72;108909;1277;21992;-61
2023/12/24 09:36:41;;;;;;;2.60;1.10;;;;;;;9.00;54.93;99505.64;108827;1271;21995;-61
2023/12/24 09:39:06;;;;;;;6.70;1.60;;;;;;;8.96;54.83;99506.58;108624;1277;22446;-60
2023/12/24 09:41:32;;;;;;;3.40;1.40;;;;;;;8.88;53.75;99506.02;108641;1278;23615;-62
2023/12/24 09:43:59;;;;;;;3.10;1.20;;;;;;;8.80;53.26;99507.23;108756;1273;21980;-62
2023/12/24 09:46:24;;;;;;;2.90;1.40;;;;;;;8.77;53.70;99512.19;108684;1273;21980;-61
2023/12/24 09:48:50;;;;;;;3.80;1.10;;;;;;;8.76;54.17;99510.79;108769;1263;21982;-61
2023/12/24 09:51:16;;;;;;;5.60;1.40;;;;;;;8.70;52.89;99511.26;108706;1277;22002;-60
2023/12/24 09:53:44;;;;;;;3.30;1.10;;;;;;;8.70;52.89;99509.33;108597;1277;21985;-61
2023/12/24 09:56:10;;;;;;;2.00;0.90;;;;;;;8.73;53.04;99508.57;108656;1277;21991;-60
2023/12/24 09:58:35;;;;;;;2.80;1.00;;;;;;;8.80;52.98;99506.36;108582;1267;22066;-61
2023/12/24 10:01:01;;;;;;;3.70;1.30;;;;;;;8.82;51.47;99502.63;108781;1267;21986;-61
2023/12/24 10:03:27;;;;;;;1.60;0.90;;;;;;;8.94;51.96;99499.27;107837;1278;1003114;-61
2023/12/24 10:06:02;;;;;;;1.90;0.90;;;;;;;9.07;52.10;99494.61;107764;1278;1002339;-60
2023/12/24 10:08:30;;;;;;;2.30;0.70;;;;;;;9.16;52.11;99491.66;108510;1267;22039;-60
2023/12/24 10:10:56;;;;;;;2.90;0.90;;;;;;;9.28;53.09;99485.61;108625;1278;23728;-59
2023/12/24 10:13:21;;;;;;;3.50;1.40;;;;;;;9.39;52.40;99480.48;108843;1277;21988;-62
2023/12/24 10:16:09;;;;;;;2.00;1.00;;;;;;;9.47;51.12;99477.70;108543;1277;21979;-61
2023/12/24 10:18:35;;;;;;;2.50;1.00;;;;;;;9.51;50.85;99470.21;108644;1265;21976;-61
2023/12/24 10:21:09;;;;;;;2.80;1.10;;;;;;;9.58;50.77;99465.35;108784;1271;21988;-61
2023/12/24 10:23:34;;;;;;;3.20;1.30;;;;;;;9.63;49.79;99463.50;108804;1277;21976;-61
2023/12/24 10:26:04;;;;;;;1.90;0.90;;;;;;;9.64;48.75;99467.84;108781;1264;22447;-62
2023/12/24 10:28:30;;;;;;;2.20;1.00;;;;;;;9.69;49.31;99464.40;108843;1273;21979;-61
2023/12/24 10:31:08;;;;;;;5.90;1.20;;;;;;;9.82;49.92;99465.16;108846;1277;21978;-59
2023/12/24 10:33:38;;;;;;;3.30;1.10;;;;;;;9.93;49.95;99464.36;108833;1275;21979;-59
2023/12/24 10:36:05;;;;;;;2.30;0.80;;;;;;;10.01;50.09;99463.12;108690;1268;21983;-61
2023/12/24 10:38:31;;;;;;;2.60;1.10;;;;;;;10.07;49.32;99468.41;108695;1271;21982;-61
2023/12/24 10:40:56;;;;;;;3.30;1.30;;;;;;;10.15;50.01;99466.27;107818;1278;1003094;-61
2023/12/24 10:43:22;;;;;;;2.70;1.00;;;;;;;10.21;49.89;99462.98;108527;1274;22036;-61
2023/12/24 10:45:48;;;;;;;3.90;1.20;;;;;;;10.26;48.99;99467.76;108484;1273;21977;-61
2023/12/24 10:48:13;;;;;;;4.40;1.00;;;;;;;10.32;48.75;99465.33;108524;1276;21979;-59
2023/12/24 10:50:39;;;;;;;2.00;0.90;;;;;;;10.37;48.54;99467.29;108681;1278;21989;-59
2023/12/24 10:53:05;;;;;;;2.30;0.80;;;;;;;10.45;48.43;99464.50;108609;1267;21987;-59
2023/12/24 10:55:32;;;;;;;5.00;1.40;;;;;;;10.56;48.86;99462.27;108586;1278;21980;-61
2023/12/24 10:58:22;;;;;;;2.70;1.30;;;;;;;10.51;47.03;99459.41;108491;1278;21986;-58
2023/12/24 11:00:47;;;;;;;2.70;1.00;;;;;;;10.54;46.58;99463.55;108511;1278;21990;-61
2023/12/24 11:03:42;;;;;;;3.60;0.90;;;;;;;10.51;45.46;99464.86;108603;1272;22039;-62
2023/12/24 11:06:09;;;;;;;2.70;1.00;;;;;;;10.51;45.40;99465.92;108502;1273;21999;-60
2023/12/24 11:08:34;;;;;;;3.20;1.20;;;;;;;10.51;45.23;99469.23;108537;1267;21984;-60
2023/12/24 11:11:06;;;;;;;4.00;1.20;;;;;;;10.51;45.03;99468.90;108496;1278;21980;-60
2023/12/24 11:13:32;;;;;;;3.00;1.20;;;;;;;10.48;44.73;99471.44;108533;1278;21938;-62
2023/12/24 11:16:06;;;;;;;4.50;1.30;;;;;;;10.44;44.29;99475.73;108124;1271;1002617;-59
2023/12/24 11:18:44;;;;;;;5.50;1.80;;;;;;;10.52;45.00;99480.28;109421;1278;21981;-59
2023/12/24 11:21:11;;;;;;;6.30;1.60;;;;;;;10.42;43.01;99472.27;108618;1278;21953;-62
2023/12/24 11:23:38;;;;;;;3.80;1.30;;;;;;;10.45;42.23;99472.20;108656;1278;21978;-62
2023/12/24 11:26:32;;;;;;;3.20;1.10;;;;;;;10.20;40.55;99474.40;108575;1278;21993;-60